Widnes, United Kingdom
Current Conditions -  °F | °C
As of 1:50 PM on Thursday 30 Oct 2014 (Local Time) from EGGP Reporting Station
Rain Showers Rain Showers  
Wind Chill: 63°   Ceiling: 3000
Heat Index: 63°   Visibility: 6mi
Dew Point: 57°   Wind: 8mph
Humidity: 82%   Direction: 180°S
Pressure: 29.94"   Gusts: NA
Location:  53.36°N, 2.73°W
Report Text: EGGP 301350Z 18007KT 140V200 9999 6000W VCSH FEW020 BKN030 17/14 Q1014
Loading
Personal Weather Stations






























Interactive Weather Map
Tropical Storm Tracking
New forecast layout! Learn more

10-Day Weather Forecast

Advertisements
Track Severe Weather on mobile